Amderma, Russia
Current Conditions -  °F | °C
As of 12:00 AM on Monday 24 Nov 2014 (Local Time) from UUYY Reporting Station
Overcast Overcast  
Wind Chill: -20°   Ceiling: 20000
Heat Index: -6°   Visibility: 6mi
Dew Point: -11°   Wind: 7mph
Humidity: 77%   Direction: 210°SSW
Pressure: 30.71"   Gusts: NA
Location:  69.76°N, 61.67°E
Report Text: UUYY 232100Z 21003MPS 9000 OVC200 M21/M24 Q1040 TEMPO 2000 BRFU 1981//51 RMK QFE771/1028
Loading
Personal Weather Stations






























Interactive Weather Map New forecast layout! Learn more

10-Day Weather Forecast

Advertisements
Track Severe Weather on mobile